sensor_id;sensor_type;location;lat;lon;timestamp;pressure;altitude;pressure_sealevel;temperature;humidity
61478;BME280;47345;52.334;10.392;2023-02-21T00:02:33;100821.46;;;7.99;100.00
61478;BME280;47345;52.334;10.392;2023-02-21T00:05:24;100820.10;;;8.00;100.00
61478;BME280;47345;52.334;10.392;2023-02-21T00:08:15;100818.83;;;8.00;100.00
61478;BME280;47345;52.334;10.392;2023-02-21T00:11:06;100817.61;;;8.00;100.00
61478;BME280;47345;52.334;10.392;2023-02-21T00:13:57;100817.38;;;8.00;100.00
61478;BME280;47345;52.334;10.392;2023-02-21T00:16:48;100818.73;;;8.01;100.00
61478;BME280;47345;52.334;10.392;2023-02-21T00:19:39;100815.21;;;8.01;100.00
61478;BME280;47345;52.334;10.392;2023-02-21T00:22:30;100818.23;;;8.02;100.00
61478;BME280;47345;52.334;10.392;2023-02-21T00:25:21;100820.95;;;8.02;100.00
61478;BME280;47345;52.334;10.392;2023-02-21T00:28:11;100824.87;;;8.03;100.00
61478;BME280;47345;52.334;10.392;2023-02-21T00:31:02;100825.33;;;8.03;100.00
61478;BME280;47345;52.334;10.392;2023-02-21T00:33:53;100826.97;;;8.04;100.00
61478;BME280;47345;52.334;10.392;2023-02-21T00:36:44;100826.69;;;8.04;100.00
61478;BME280;47345;52.334;10.392;2023-02-21T00:39:35;100824.58;;;8.04;100.00
61478;BME280;47345;52.334;10.392;2023-02-21T00:42:25;100819.36;;;8.05;100.00
61478;BME280;47345;52.334;10.392;2023-02-21T00:45:16;100824.20;;;8.05;100.00
61478;BME280;47345;52.334;10.392;2023-02-21T00:48:07;100823.61;;;8.06;100.00
61478;BME280;47345;52.334;10.392;2023-02-21T00:50:58;100828.05;;;8.05;100.00
61478;BME280;47345;52.334;10.392;2023-02-21T00:53:49;100827.57;;;8.04;100.00
61478;BME280;47345;52.334;10.392;2023-02-21T00:56:40;100832.35;;;8.07;100.00
61478;BME280;47345;52.334;10.392;2023-02-21T00:59:31;100834.45;;;8.07;100.00
61478;BME280;47345;52.334;10.392;2023-02-21T01:02:21;100834.58;;;8.08;100.00
61478;BME280;47345;52.334;10.392;2023-02-21T01:05:12;100836.48;;;8.09;100.00
61478;BME280;47345;52.334;10.392;2023-02-21T01:08:02;100835.68;;;8.09;100.00
61478;BME280;47345;52.334;10.392;2023-02-21T01:10:53;100833.46;;;8.10;100.00
61478;BME280;47345;52.334;10.392;2023-02-21T01:13:45;100833.52;;;8.11;100.00
61478;BME280;47345;52.334;10.392;2023-02-21T01:16:35;100831.61;;;8.11;100.00
61478;BME280;47345;52.334;10.392;2023-02-21T01:19:37;100825.55;;;8.12;100.00
61478;BME280;47345;52.334;10.392;2023-02-21T01:22:28;100828.52;;;8.13;100.00
61478;BME280;47345;52.334;10.392;2023-02-21T01:25:19;100824.94;;;8.14;100.00
61478;BME280;47345;52.334;10.392;2023-02-21T01:28:10;100826.11;;;8.15;100.00
61478;BME280;47345;52.334;10.392;2023-02-21T01:31:00;100830.27;;;8.15;100.00
61478;BME280;47345;52.334;10.392;2023-02-21T01:33:51;100826.45;;;8.15;100.00
61478;BME280;47345;52.334;10.392;2023-02-21T01:36:43;100825.73;;;8.15;100.00
61478;BME280;47345;52.334;10.392;2023-02-21T01:39:34;100829.89;;;8.15;100.00
61478;BME280;47345;52.334;10.392;2023-02-21T01:42:25;100829.32;;;8.16;100.00
61478;BME280;47345;52.334;10.392;2023-02-21T01:45:50;100833.80;;;8.16;100.00
61478;BME280;47345;52.334;10.392;2023-02-21T01:48:41;100830.41;;;8.15;100.00
61478;BME280;47345;52.334;10.392;2023-02-21T01:51:33;100836.59;;;8.17;100.00
61478;BME280;47345;52.334;10.392;2023-02-21T01:54:29;100829.25;;;8.17;100.00
61478;BME280;47345;52.334;10.392;2023-02-21T01:57:21;100832.32;;;8.18;100.00
61478;BME280;47345;52.334;10.392;2023-02-21T02:00:14;100834.66;;;8.18;100.00
61478;BME280;47345;52.334;10.392;2023-02-21T02:03:06;100838.75;;;8.19;100.00
61478;BME280;47345;52.334;10.392;2023-02-21T02:05:58;100843.75;;;8.19;100.00
61478;BME280;47345;52.334;10.392;2023-02-21T02:08:50;100847.33;;;8.20;100.00
61478;BME280;47345;52.334;10.392;2023-02-21T02:11:59;100840.78;;;8.20;100.00
61478;BME280;47345;52.334;10.392;2023-02-21T02:15:32;100841.28;;;8.20;100.00
61478;BME280;47345;52.334;10.392;2023-02-21T02:18:28;100839.23;;;8.20;100.00
61478;BME280;47345;52.334;10.392;2023-02-21T02:27:36;100834.36;;;8.20;100.00
61478;BME280;47345;52.334;10.392;2023-02-21T05:59:22;100797.67;;;8.39;100.00
61478;BME280;47345;52.334;10.392;2023-02-21T06:01:53;100797.98;;;8.40;100.00
61478;BME280;47345;52.334;10.392;2023-02-21T06:04:23;100796.34;;;8.40;100.00
61478;BME280;47345;52.334;10.392;2023-02-21T06:06:54;100794.16;;;8.41;100.00
61478;BME280;47345;52.334;10.392;2023-02-21T06:09:26;100793.25;;;8.41;100.00
61478;BME280;47345;52.334;10.392;2023-02-21T06:12:01;100795.52;;;8.42;100.00
61478;BME280;47345;52.334;10.392;2023-02-21T06:14:34;100799.44;;;8.43;100.00
61478;BME280;47345;52.334;10.392;2023-02-21T06:17:07;100801.33;;;8.44;100.00
61478;BME280;47345;52.334;10.392;2023-02-21T06:19:40;100810.02;;;8.44;100.00
61478;BME280;47345;52.334;10.392;2023-02-21T06:22:13;100807.87;;;8.44;100.00
61478;BME280;47345;52.334;10.392;2023-02-21T06:24:47;100802.48;;;8.45;100.00
61478;BME280;47345;52.334;10.392;2023-02-21T06:27:22;100805.84;;;8.45;100.00
61478;BME280;47345;52.334;10.392;2023-02-21T06:29:56;100807.98;;;8.46;100.00
61478;BME280;47345;52.334;10.392;2023-02-21T06:32:29;100807.94;;;8.46;100.00
61478;BME280;47345;52.334;10.392;2023-02-21T06:35:02;100808.52;;;8.46;100.00
61478;BME280;47345;52.334;10.392;2023-02-21T06:37:35;100817.84;;;8.47;100.00
61478;BME280;47345;52.334;10.392;2023-02-21T06:40:10;100819.10;;;8.47;100.00
61478;BME280;47345;52.334;10.392;2023-02-21T06:42:42;100821.80;;;8.47;100.00
61478;BME280;47345;52.334;10.392;2023-02-21T06:45:17;100825.33;;;8.48;100.00
61478;BME280;47345;52.334;10.392;2023-02-21T06:47:51;100831.09;;;8.49;100.00
61478;BME280;47345;52.334;10.392;2023-02-21T06:50:25;100842.33;;;8.49;100.00
61478;BME280;47345;52.334;10.392;2023-02-21T06:52:58;100845.70;;;8.49;100.00
61478;BME280;47345;52.334;10.392;2023-02-21T06:55:31;100846.48;;;8.49;100.00
61478;BME280;47345;52.334;10.392;2023-02-21T06:58:04;100854.23;;;8.50;100.00
61478;BME280;47345;52.334;10.392;2023-02-21T07:00:37;100852.63;;;8.49;100.00
61478;BME280;47345;52.334;10.392;2023-02-21T07:03:11;100853.92;;;8.49;100.00
61478;BME280;47345;52.334;10.392;2023-02-21T07:05:45;100862.30;;;8.49;100.00
61478;BME280;47345;52.334;10.392;2023-02-21T07:08:18;100858.38;;;8.48;100.00
61478;BME280;47345;52.334;10.392;2023-02-21T07:10:51;100861.65;;;8.48;100.00
61478;BME280;47345;52.334;10.392;2023-02-21T07:13:24;100868.73;;;8.47;100.00
61478;BME280;47345;52.334;10.392;2023-02-21T07:15:58;100864.72;;;8.46;100.00
61478;BME280;47345;52.334;10.392;2023-02-21T07:18:31;100871.30;;;8.45;100.00
61478;BME280;47345;52.334;10.392;2023-02-21T07:21:05;100875.77;;;8.44;100.00
61478;BME280;47345;52.334;10.392;2023-02-21T07:23:38;100880.39;;;8.44;100.00
61478;BME280;47345;52.334;10.392;2023-02-21T07:26:13;100881.21;;;8.43;100.00
61478;BME280;47345;52.334;10.392;2023-02-21T07:28:48;100884.11;;;8.43;100.00
61478;BME280;47345;52.334;10.392;2023-02-21T07:31:21;100886.91;;;8.42;100.00
61478;BME280;47345;52.334;10.392;2023-02-21T07:33:54;100889.47;;;8.42;100.00
61478;BME280;47345;52.334;10.392;2023-02-21T07:36:27;100890.02;;;8.42;100.00
61478;BME280;47345;52.334;10.392;2023-02-21T07:39:01;100892.54;;;8.42;100.00
61478;BME280;47345;52.334;10.392;2023-02-21T07:41:34;100891.40;;;8.43;100.00
61478;BME280;47345;52.334;10.392;2023-02-21T07:44:08;100891.00;;;8.43;100.00
61478;BME280;47345;52.334;10.392;2023-02-21T07:46:41;100893.86;;;8.44;100.00
61478;BME280;47345;52.334;10.392;2023-02-21T07:49:16;100894.61;;;8.45;100.00
61478;BME280;47345;52.334;10.392;2023-02-21T07:51:49;100895.20;;;8.45;100.00
61478;BME280;47345;52.334;10.392;2023-02-21T07:54:22;100895.45;;;8.44;100.00
61478;BME280;47345;52.334;10.392;2023-02-21T07:56:56;100897.13;;;8.44;100.00
61478;BME280;47345;52.334;10.392;2023-02-21T07:59:30;100896.30;;;8.45;100.00
61478;BME280;47345;52.334;10.392;2023-02-21T08:02:04;100897.38;;;8.45;100.00
61478;BME280;47345;52.334;10.392;2023-02-21T08:04:37;100892.42;;;8.44;100.00
61478;BME280;47345;52.334;10.392;2023-02-21T08:07:10;100892.90;;;8.45;100.00
61478;BME280;47345;52.334;10.392;2023-02-21T08:09:43;100897.83;;;8.47;100.00
61478;BME280;47345;52.334;10.392;2023-02-21T08:12:16;100900.61;;;8.48;100.00
61478;BME280;47345;52.334;10.392;2023-02-21T08:14:49;100902.86;;;8.49;100.00
61478;BME280;47345;52.334;10.392;2023-02-21T08:17:22;100906.08;;;8.51;100.00
61478;BME280;47345;52.334;10.392;2023-02-21T08:19:55;100909.51;;;8.52;100.00
61478;BME280;47345;52.334;10.392;2023-02-21T08:22:27;100911.70;;;8.54;100.00
61478;BME280;47345;52.334;10.392;2023-02-21T08:25:00;100920.66;;;8.55;100.00
61478;BME280;47345;52.334;10.392;2023-02-21T08:27:34;100916.17;;;8.56;100.00
61478;BME280;47345;52.334;10.392;2023-02-21T08:30:07;100918.36;;;8.57;100.00
61478;BME280;47345;52.334;10.392;2023-02-21T08:32:43;100916.95;;;8.59;100.00
61478;BME280;47345;52.334;10.392;2023-02-21T08:35:19;100915.73;;;8.60;100.00
61478;BME280;47345;52.334;10.392;2023-02-21T08:37:52;100919.63;;;8.60;100.00
61478;BME280;47345;52.334;10.392;2023-02-21T08:40:27;100918.14;;;8.62;100.00
61478;BME280;47345;52.334;10.392;2023-02-21T08:43:01;100912.57;;;8.63;100.00
61478;BME280;47345;52.334;10.392;2023-02-21T08:45:35;100913.30;;;8.64;100.00
61478;BME280;47345;52.334;10.392;2023-02-21T08:48:08;100915.48;;;8.66;100.00
61478;BME280;47345;52.334;10.392;2023-02-21T08:50:41;100911.91;;;8.64;100.00
61478;BME280;47345;52.334;10.392;2023-02-21T08:53:14;100921.77;;;8.70;100.00
61478;BME280;47345;52.334;10.392;2023-02-21T08:55:48;100922.13;;;8.71;100.00
61478;BME280;47345;52.334;10.392;2023-02-21T08:58:20;100930.45;;;8.73;100.00
61478;BME280;47345;52.334;10.392;2023-02-21T09:00:53;100935.45;;;8.74;100.00
61478;BME280;47345;52.334;10.392;2023-02-21T09:03:26;100932.06;;;8.75;100.00
61478;BME280;47345;52.334;10.392;2023-02-21T09:05:59;100930.56;;;8.75;100.00
61478;BME280;47345;52.334;10.392;2023-02-21T09:08:33;100931.17;;;8.76;100.00
61478;BME280;47345;52.334;10.392;2023-02-21T09:11:09;100932.73;;;8.78;100.00
61478;BME280;47345;52.334;10.392;2023-02-21T09:13:41;100932.46;;;8.80;100.00
61478;BME280;47345;52.334;10.392;2023-02-21T09:16:14;100936.05;;;8.82;100.00
61478;BME280;47345;52.334;10.392;2023-02-21T09:18:55;100937.70;;;8.85;100.00
61478;BME280;47345;52.334;10.392;2023-02-21T09:21:29;100937.98;;;8.89;100.00
61478;BME280;47345;52.334;10.392;2023-02-21T09:24:01;100941.64;;;8.92;100.00
61478;BME280;47345;52.334;10.392;2023-02-21T09:26:35;100939.86;;;8.94;100.00
61478;BME280;47345;52.334;10.392;2023-02-21T09:29:08;100938.77;;;8.97;100.00
61478;BME280;47345;52.334;10.392;2023-02-21T09:31:42;100937.38;;;9.01;100.00
61478;BME280;47345;52.334;10.392;2023-02-21T09:34:15;100942.95;;;9.04;100.00
61478;BME280;47345;52.334;10.392;2023-02-21T09:36:47;100945.06;;;9.06;100.00
61478;BME280;47345;52.334;10.392;2023-02-21T09:39:21;100942.91;;;9.09;100.00
61478;BME280;47345;52.334;10.392;2023-02-21T09:41:53;100939.93;;;9.12;100.00
61478;BME280;47345;52.334;10.392;2023-02-21T09:44:29;100933.15;;;9.17;100.00
61478;BME280;47345;52.334;10.392;2023-02-21T09:47:04;100933.17;;;9.24;100.00
61478;BME280;47345;52.334;10.392;2023-02-21T09:49:40;100929.85;;;9.32;100.00
61478;BME280;47345;52.334;10.392;2023-02-21T09:52:21;100928.59;;;9.39;100.00
61478;BME280;47345;52.334;10.392;2023-02-21T09:54:58;100921.94;;;9.47;100.00
61478;BME280;47345;52.334;10.392;2023-02-21T09:57:32;100932.33;;;9.53;99.68
61478;BME280;47345;52.334;10.392;2023-02-21T10:00:14;100935.48;;;9.56;99.34
61478;BME280;47345;52.334;10.392;2023-02-21T10:02:58;100931.86;;;9.59;98.95
61478;BME280;47345;52.334;10.392;2023-02-21T10:05:41;100935.15;;;9.61;98.49
61478;BME280;47345;52.334;10.392;2023-02-21T10:08:23;100928.17;;;9.64;98.49
61478;BME280;47345;52.334;10.392;2023-02-21T10:11:02;100934.14;;;9.69;98.39
61478;BME280;47345;52.334;10.392;2023-02-21T10:13:42;100930.52;;;9.73;98.19
61478;BME280;47345;52.334;10.392;2023-02-21T10:16:23;100926.02;;;9.77;97.85
61478;BME280;47345;52.334;10.392;2023-02-21T10:19:05;100929.29;;;9.81;97.90
61478;BME280;47345;52.334;10.392;2023-02-21T10:21:46;100926.67;;;9.86;97.75
61478;BME280;47345;52.334;10.392;2023-02-21T10:24:23;100930.85;;;9.92;97.72
61478;BME280;47345;52.334;10.392;2023-02-21T10:27:00;100936.45;;;9.98;97.56
61478;BME280;47345;52.334;10.392;2023-02-21T10:29:39;100938.48;;;10.00;96.64
61478;BME280;47345;52.334;10.392;2023-02-21T10:32:16;100936.04;;;10.01;96.24
61478;BME280;47345;52.334;10.392;2023-02-21T10:34:50;100941.90;;;10.04;96.51
61478;BME280;47345;52.334;10.392;2023-02-21T10:37:32;100938.64;;;10.08;96.57
61478;BME280;47345;52.334;10.392;2023-02-21T10:40:30;100939.81;;;10.11;96.38
61478;BME280;47345;52.334;10.392;2023-02-21T10:43:09;100946.22;;;10.14;95.92
61478;BME280;47345;52.334;10.392;2023-02-21T10:45:46;100952.51;;;10.17;95.91
61478;BME280;47345;52.334;10.392;2023-02-21T10:48:26;100947.83;;;10.21;95.80
61478;BME280;47345;52.334;10.392;2023-02-21T10:51:09;100945.66;;;10.25;95.46
61478;BME280;47345;52.334;10.392;2023-02-21T10:53:42;100948.42;;;10.29;95.44
61478;BME280;47345;52.334;10.392;2023-02-21T10:56:26;100951.52;;;10.35;95.25
61478;BME280;47345;52.334;10.392;2023-02-21T10:59:01;100948.36;;;10.40;95.19
61478;BME280;47345;52.334;10.392;2023-02-21T11:01:40;100951.17;;;10.45;94.75
61478;BME280;47345;52.334;10.392;2023-02-21T11:04:27;100948.20;;;10.48;94.39
61478;BME280;47345;52.334;10.392;2023-02-21T11:07:03;100958.29;;;10.52;94.12
61478;BME280;47345;52.334;10.392;2023-02-21T11:09:39;100958.25;;;10.54;94.05
61478;BME280;47345;52.334;10.392;2023-02-21T11:12:21;100958.94;;;10.57;94.11
61478;BME280;47345;52.334;10.392;2023-02-21T11:15:18;100958.83;;;10.59;93.67
61478;BME280;47345;52.334;10.392;2023-02-21T11:18:04;100957.52;;;10.61;93.82
61478;BME280;47345;52.334;10.392;2023-02-21T11:20:38;100959.41;;;10.60;92.92
61478;BME280;47345;52.334;10.392;2023-02-21T11:23:23;100959.73;;;10.58;92.57
61478;BME280;47345;52.334;10.392;2023-02-21T11:26:04;100958.13;;;10.56;92.55
61478;BME280;47345;52.334;10.392;2023-02-21T11:28:40;100958.00;;;10.54;92.65
61478;BME280;47345;52.334;10.392;2023-02-21T11:31:19;100955.43;;;10.55;92.47
61478;BME280;47345;52.334;10.392;2023-02-21T11:33:57;100962.48;;;10.58;93.01
61478;BME280;47345;52.334;10.392;2023-02-21T11:36:32;100958.08;;;10.63;93.14
61478;BME280;47345;52.334;10.392;2023-02-21T11:39:13;100960.23;;;10.68;92.51
61478;BME280;47345;52.334;10.392;2023-02-21T11:41:49;100964.85;;;10.70;92.24
61478;BME280;47345;52.334;10.392;2023-02-21T11:44:30;100968.30;;;10.70;91.78
61478;BME280;47345;52.334;10.392;2023-02-21T11:47:12;100970.78;;;10.70;91.45
61478;BME280;47345;52.334;10.392;2023-02-21T11:49:59;100968.45;;;10.67;90.61
61478;BME280;47345;52.334;10.392;2023-02-21T11:52:39;100966.08;;;10.63;90.70
61478;BME280;47345;52.334;10.392;2023-02-21T11:55:16;100969.64;;;10.60;90.59
61478;BME280;47345;52.334;10.392;2023-02-21T11:57:59;100970.44;;;10.58;90.59
61478;BME280;47345;52.334;10.392;2023-02-21T12:00:41;100970.97;;;10.58;90.60
61478;BME280;47345;52.334;10.392;2023-02-21T12:06:37;100972.77;;;10.56;90.10
61478;BME280;47345;52.334;10.392;2023-02-21T12:09:16;100977.30;;;10.54;90.12
61478;BME280;47345;52.334;10.392;2023-02-21T12:12:01;100976.14;;;10.55;90.34
61478;BME280;47345;52.334;10.392;2023-02-21T12:14:53;100973.58;;;10.58;90.44
61478;BME280;47345;52.334;10.392;2023-02-21T12:17:39;100975.28;;;10.61;90.44
61478;BME280;47345;52.334;10.392;2023-02-21T12:20:45;100973.12;;;10.67;90.19
61478;BME280;47345;52.334;10.392;2023-02-21T12:23:28;100972.55;;;10.73;89.65
61478;BME280;47345;52.334;10.392;2023-02-21T12:26:19;100973.73;;;10.79;89.92
61478;BME280;47345;52.334;10.392;2023-02-21T12:29:12;100975.06;;;10.87;89.54
61478;BME280;47345;52.334;10.392;2023-02-21T12:32:04;100970.38;;;10.92;89.25
61478;BME280;47345;52.334;10.392;2023-02-21T12:34:50;100972.57;;;10.92;87.97
61478;BME280;47345;52.334;10.392;2023-02-21T12:37:30;100966.33;;;10.89;87.83
61478;BME280;47345;52.334;10.392;2023-02-21T12:40:18;100964.67;;;10.87;88.27
61478;BME280;47345;52.334;10.392;2023-02-21T12:43:19;100964.04;;;10.88;88.50
61478;BME280;47345;52.334;10.392;2023-02-21T12:46:11;100953.31;;;10.87;86.94
61478;BME280;47345;52.334;10.392;2023-02-21T12:48:48;100953.34;;;10.87;86.61
61478;BME280;47345;52.334;10.392;2023-02-21T12:51:27;100947.83;;;10.86;87.45
61478;BME280;47345;52.334;10.392;2023-02-21T12:54:04;100943.18;;;10.83;87.44
61478;BME280;47345;52.334;10.392;2023-02-21T12:56:41;100941.33;;;10.80;87.67
61478;BME280;47345;52.334;10.392;2023-02-21T12:59:19;100946.56;;;10.77;87.90
61478;BME280;47345;52.334;10.392;2023-02-21T13:01:55;100941.54;;;10.74;87.74
61478;BME280;47345;52.334;10.392;2023-02-21T13:04:37;100944.81;;;10.70;87.49
61478;BME280;47345;52.334;10.392;2023-02-21T13:07:19;100942.61;;;10.68;88.23
61478;BME280;47345;52.334;10.392;2023-02-21T13:10:01;100941.30;;;10.66;88.03
61478;BME280;47345;52.334;10.392;2023-02-21T13:12:39;100940.12;;;10.66;88.01
61478;BME280;47345;52.334;10.392;2023-02-21T13:15:18;100936.84;;;10.68;88.64
61478;BME280;47345;52.334;10.392;2023-02-21T13:17:57;100935.56;;;10.72;88.75
61478;BME280;47345;52.334;10.392;2023-02-21T13:20:34;100929.81;;;10.77;88.94
61478;BME280;47345;52.334;10.392;2023-02-21T13:26:29;100924.20;;;10.83;88.16
61478;BME280;47345;52.334;10.392;2023-02-21T13:29:15;100921.34;;;10.85;88.45
61478;BME280;47345;52.334;10.392;2023-02-21T13:32:00;100922.86;;;10.86;88.20
61478;BME280;47345;52.334;10.392;2023-02-21T13:34:38;100921.00;;;10.86;87.88
61478;BME280;47345;52.334;10.392;2023-02-21T13:37:18;100923.36;;;10.86;87.55
61478;BME280;47345;52.334;10.392;2023-02-21T13:39:55;100923.95;;;10.86;87.54
61478;BME280;47345;52.334;10.392;2023-02-21T13:42:33;100923.15;;;10.85;87.77
61478;BME280;47345;52.334;10.392;2023-02-21T13:45:15;100921.80;;;10.84;87.52
61478;BME280;47345;52.334;10.392;2023-02-21T13:48:26;100922.84;;;10.82;87.59
61478;BME280;47345;52.334;10.392;2023-02-21T13:51:00;100920.56;;;10.81;87.93
61478;BME280;47345;52.334;10.392;2023-02-21T13:54:07;100917.49;;;10.83;88.02
61478;BME280;47345;52.334;10.392;2023-02-21T13:56:44;100913.80;;;10.87;87.95
61478;BME280;47345;52.334;10.392;2023-02-21T13:59:36;100912.58;;;10.92;88.02
61478;BME280;47345;52.334;10.392;2023-02-21T14:02:25;100910.31;;;10.98;87.73
61478;BME280;47345;52.334;10.392;2023-02-21T14:05:06;100908.52;;;11.03;87.37
61478;BME280;47345;52.334;10.392;2023-02-21T14:07:53;100915.56;;;11.08;87.34
61478;BME280;47345;52.334;10.392;2023-02-21T14:10:35;100919.70;;;11.13;86.74
61478;BME280;47345;52.334;10.392;2023-02-21T14:13:20;100914.69;;;11.16;86.44
61478;BME280;47345;52.334;10.392;2023-02-21T14:15:59;100911.45;;;11.18;86.10
61478;BME280;47345;52.334;10.392;2023-02-21T14:18:44;100917.02;;;11.20;86.18
61478;BME280;47345;52.334;10.392;2023-02-21T14:21:26;100913.27;;;11.21;86.18
61478;BME280;47345;52.334;10.392;2023-02-21T14:24:03;100908.92;;;11.20;86.00
61478;BME280;47345;52.334;10.392;2023-02-21T14:26:47;100908.20;;;11.19;86.24
61478;BME280;47345;52.334;10.392;2023-02-21T14:29:34;100912.84;;;11.17;86.00
61478;BME280;47345;52.334;10.392;2023-02-21T14:32:32;100912.08;;;11.13;85.75
61478;BME280;47345;52.334;10.392;2023-02-21T14:35:25;100915.14;;;11.10;85.79
61478;BME280;47345;52.334;10.392;2023-02-21T14:38:00;100914.47;;;11.06;85.67
61478;BME280;47345;52.334;10.392;2023-02-21T14:40:44;100918.49;;;11.02;85.43
61478;BME280;47345;52.334;10.392;2023-02-21T14:43:36;100916.45;;;10.97;85.27
61478;BME280;47345;52.334;10.392;2023-02-21T14:46:41;100911.85;;;10.93;85.49
61478;BME280;47345;52.334;10.392;2023-02-21T14:49:54;100917.98;;;10.91;85.85
61478;BME280;47345;52.334;10.392;2023-02-21T14:52:57;100911.97;;;10.90;85.82
61478;BME280;47345;52.334;10.392;2023-02-21T14:55:59;100912.98;;;10.87;85.81
61478;BME280;47345;52.334;10.392;2023-02-21T14:58:46;100915.52;;;10.86;85.81
61478;BME280;47345;52.334;10.392;2023-02-21T15:01:45;100912.55;;;10.85;86.27
61478;BME280;47345;52.334;10.392;2023-02-21T15:04:25;100913.20;;;10.84;86.40
61478;BME280;47345;52.334;10.392;2023-02-21T15:07:13;100913.25;;;10.84;86.06
61478;BME280;47345;52.334;10.392;2023-02-21T15:10:05;100909.99;;;10.81;86.11
61478;BME280;47345;52.334;10.392;2023-02-21T15:12:43;100909.99;;;10.80;86.39
61478;BME280;47345;52.334;10.392;2023-02-21T15:15:21;100912.14;;;10.80;86.50
61478;BME280;47345;52.334;10.392;2023-02-21T15:18:03;100909.19;;;10.81;86.37
61478;BME280;47345;52.334;10.392;2023-02-21T15:20:38;100913.33;;;10.79;86.37
61478;BME280;47345;52.334;10.392;2023-02-21T15:23:17;100914.83;;;10.79;86.68
61478;BME280;47345;52.334;10.392;2023-02-21T15:26:08;100912.60;;;10.78;86.72
61478;BME280;47345;52.334;10.392;2023-02-21T15:28:42;100914.48;;;10.76;86.26
61478;BME280;47345;52.334;10.392;2023-02-21T15:31:16;100913.55;;;10.72;86.07
61478;BME280;47345;52.334;10.392;2023-02-21T15:33:53;100913.91;;;10.69;86.10
61478;BME280;47345;52.334;10.392;2023-02-21T15:36:25;100912.64;;;10.67;86.09
61478;BME280;47345;52.334;10.392;2023-02-21T15:39:03;100910.66;;;10.63;86.12
61478;BME280;47345;52.334;10.392;2023-02-21T15:41:39;100910.27;;;10.62;86.27
61478;BME280;47345;52.334;10.392;2023-02-21T15:44:17;100911.05;;;10.60;86.12
61478;BME280;47345;52.334;10.392;2023-02-21T15:46:52;100911.90;;;10.58;86.06
61478;BME280;47345;52.334;10.392;2023-02-21T15:49:30;100916.44;;;10.57;86.17
61478;BME280;47345;52.334;10.392;2023-02-21T15:52:06;100918.31;;;10.54;85.90
61478;BME280;47345;52.334;10.392;2023-02-21T15:54:39;100922.77;;;10.51;85.98
61478;BME280;47345;52.334;10.392;2023-02-21T15:57:23;100922.55;;;10.46;86.08
61478;BME280;47345;52.334;10.392;2023-02-21T16:00:18;100922.38;;;10.43;86.24
61478;BME280;47345;52.334;10.392;2023-02-21T16:02:51;100920.30;;;10.40;86.31
61478;BME280;47345;52.334;10.392;2023-02-21T16:05:27;100916.02;;;10.38;86.42
61478;BME280;47345;52.334;10.392;2023-02-21T16:08:03;100914.27;;;10.37;86.57
61478;BME280;47345;52.334;10.392;2023-02-21T16:10:36;100913.02;;;10.37;86.73
61478;BME280;47345;52.334;10.392;2023-02-21T16:13:12;100912.71;;;10.37;86.89
61478;BME280;47345;52.334;10.392;2023-02-21T16:15:46;100913.38;;;10.35;86.87
61478;BME280;47345;52.334;10.392;2023-02-21T16:18:19;100912.27;;;10.33;86.83
61478;BME280;47345;52.334;10.392;2023-02-21T16:21:00;100912.34;;;10.30;87.05
61478;BME280;47345;52.334;10.392;2023-02-21T16:23:34;100911.07;;;10.30;87.29
61478;BME280;47345;52.334;10.392;2023-02-21T16:26:23;100910.45;;;10.31;87.41
61478;BME280;47345;52.334;10.392;2023-02-21T16:28:58;100915.13;;;10.32;87.20
61478;BME280;47345;52.334;10.392;2023-02-21T16:31:34;100909.95;;;10.32;87.27
61478;BME280;47345;52.334;10.392;2023-02-21T16:34:13;100912.70;;;10.32;87.18
61478;BME280;47345;52.334;10.392;2023-02-21T16:36:46;100916.68;;;10.32;87.26
61478;BME280;47345;52.334;10.392;2023-02-21T16:39:24;100913.64;;;10.30;87.21
61478;BME280;47345;52.334;10.392;2023-02-21T16:41:57;100916.70;;;10.29;87.33
61478;BME280;47345;52.334;10.392;2023-02-21T16:44:30;100921.80;;;10.29;87.47
61478;BME280;47345;52.334;10.392;2023-02-21T16:47:03;100923.48;;;10.29;87.62
61478;BME280;47345;52.334;10.392;2023-02-21T16:49:37;100926.85;;;10.29;87.59
61478;BME280;47345;52.334;10.392;2023-02-21T16:52:14;100933.77;;;10.26;87.53
61478;BME280;47345;52.334;10.392;2023-02-21T16:54:48;100939.55;;;10.22;87.60
61478;BME280;47345;52.334;10.392;2023-02-21T16:57:21;100940.70;;;10.18;87.63
61478;BME280;47345;52.334;10.392;2023-02-21T16:59:54;100946.86;;;10.16;87.75
61478;BME280;47345;52.334;10.392;2023-02-21T17:02:27;100954.66;;;10.14;87.83
61478;BME280;47345;52.334;10.392;2023-02-21T17:05:00;100957.84;;;10.12;87.94
61478;BME280;47345;52.334;10.392;2023-02-21T17:07:34;100958.29;;;10.08;87.96
61478;BME280;47345;52.334;10.392;2023-02-21T17:10:09;100959.54;;;10.05;88.02
61478;BME280;47345;52.334;10.392;2023-02-21T17:12:42;100959.73;;;10.02;88.18
61478;BME280;47345;52.334;10.392;2023-02-21T17:15:15;100961.44;;;10.00;88.33
61478;BME280;47345;52.334;10.392;2023-02-21T17:17:47;100965.41;;;9.98;88.35
61478;BME280;47345;52.334;10.392;2023-02-21T17:20:24;100963.58;;;9.95;88.37
61478;BME280;47345;52.334;10.392;2023-02-21T17:22:57;100964.94;;;9.92;88.54
61478;BME280;47345;52.334;10.392;2023-02-21T17:25:29;100968.11;;;9.88;88.60
61478;BME280;47345;52.334;10.392;2023-02-21T17:28:02;100974.64;;;9.86;88.69
61478;BME280;47345;52.334;10.392;2023-02-21T17:30:36;100974.84;;;9.84;88.82
61478;BME280;47345;52.334;10.392;2023-02-21T17:33:08;100980.24;;;9.83;88.95